Strona główna
METAR-TAF:

METAR-TAF

Lotnisko :

Columbus, Indiana, Stany Zjednoczone

Szerokość geograficzna: 39-16N, Długość geograficzna: 085-54W, wysokość: 200 m

Aktualna obserwacja pogody

Raport powstał 1 godzina i 14 minut temu, godzina 21:45 UTC
Wiatr 10 kt od wschód
Temperatura 0°C
Wilgotność 55%
Ciśnienie 1033 hPa
Widzialność: 16.1 km
Zachmurzenie całkowite na wysokości 10000 ft

METAR: KBAK 172145Z 10010KT 10SM OVC100 00/M08 A3051

czas: 17:59 (22:59 UTC)


TAF: brakujący

Obserwacja i prognoza pogody dla ponad 4000 lotnisk (raport METAR i TAF).

Dostępne stacje oznaczono żółtymi i czerwonymi punktami na mapie.

Najedź kursorem aby zobaczyć nazwę stacji.

Kliknij aby zobaczyć obserwacje i prognozy pogody.

Aby zmienić mapę: kliknij na zielony przycisk z czarnym krzyżykiem, aby powiększyć; na zielony przycisk z myślnikiem, aby pomniejszyć; na zielone strzałki, aby przejść do map sąsiednich.


METAR-TAF: